Grundy Center, IA (50638)

6:21 AM CST on February 22, 2017 (GMT -0600)
Grundy Center Elementary | | Change Station

Elev 1024 ft 42.36 °N, 92.78 °W | Updated 22 seconds ago

Clear
Clear
44.8 °F
Feels Like 40 °F
N
8.9
Wind Variable Wind from SSW
Gusts 12.0 mph

Today
High -- | Low -- °F
--% Chance of Precip.
Yesterday
High -- | Low -- °F
Precip. -- in
Pressure 29.68 in
Visibility 10.0 miles
Clouds Clear
Windchill 40 °F
Dew Point 35 °F
Humidity 68%
Rainfall 0.00 in
Snow Depth Not available.
6:56 AM 5:52 PM
Waning Crescent, 17% visible
METAR KMIW 221153Z AUTO 21012KT 10SM CLR 10/02 A2967 RMK AO2 SLP049 T01000017 10100 20078 58015
Pressure 29.68 in
Visibility 10.0 miles
Clouds Clear
Windchill 40 °F
Dew Point 35 °F
Humidity 68%
Rainfall 0.00 in
Snow Depth Not available.
6:56 AM 5:52 PM
Waning Crescent, 17% visible
METAR KMIW 221153Z AUTO 21012KT 10SM CLR 10/02 A2967 RMK AO2 SLP049 T01000017 10100 20078 58015

Get Your Daily Forecast Email!

Thanks for signing up!

Be on the lookout for a verification email in your inbox.

You'll start receiving the daily forecast at 8 AM.

×

10-Day Weather Forecast

Almanac

Astronomy

Feb. 22, 2017 Rise Set
Actual Time
Civil Twilight
Nautical Twilight
Astronomical Twilight
Moon
Length of Visible Light
Length of Day
Tomorrow will be .
, % of the Moon is Illuminated

Today's Extremes

State Highs State Lows

Community

WunderPhotos

Upload Photos

1,962,540 photos uploaded!

WunderBlog® & News

Nearby

Air Quality

  Air Quality AQ Index Pollutant
Not available.

Snow Depth

Station Depth Elevation

Earthquake Activity

City Distance Mag. Time & Date
Minimum magnitude displayed is 2.5.

Coastal Water Temperatures

Place Temperature

Stations

Nearby Weather Stations

Station Location Temp. Windchill Dew Point Humidity Wind Precip. Elev Updated Type
                   

Watches & Warnings

There are currently no watches in effect.